Accueil
METAR-TAF:

METAR-TAF

Aéroports :

Aéroport de León

León, Espagne

latitude: 42-35N, longitude: 005-39W, altitude: 926 m

Observation

Le bulletin a été fait il y a 22 minutes, à 05:00 UTC
Vent 4 kt de ouest/nord-ouest
Température 12°C
Humidité 82%
Pression 1019 hPa
Visibilité 10 km ou plus
pas de nuages en-dessous de 1500 mètres et pas de cumulonimbus.

METAR: LELN 100500Z AUTO 30004KT CAVOK 12/09 Q1019

Heure: 07:22 (05:22 UTC)

Prévision

Le bulletin a été fait il y a 3 heures et 22 minutes, à 02:00 UTC
Prévision valable du 10 à 03 UTC au 10 à 12 UTC
Vent 4 kt de direction variable
Visibilité 10 km ou plus
pas de nuages en-dessous de 1500 mètres et pas de cumulonimbus.

TAF: LELN 100200Z 1003/1012 VRB04KT CAVOK

Observations et prévisions météorologiques de plus de 4000 aéroports (messages METAR et TAF).

Les stations disponibles sont représentées par des disques jaunes et rouges sur la carte.

Passer la souris dessus pour voir le nom de la station.

Cliquer dessus pour voir les observations et prévisions météorologiques.

Pour changer de carte: cliquez sur les boutons verts avec une croix noire pour zoomer, sur le bouton vert avec un tiret pour effectuer un zoom arrière, ou sur les flèches vertes pour les cartes adjacentes.


METAR-TAF: